Time;durP1;ratioP1;P1;durP2;ratioP2;P2;SDS_P1;SDS_P2;PMS_P1;PMS_P2;Temp;Humidity;BMP_temperature;BMP_pressure;BME280_temperature;BME280_humidity;BME280_pressure;Samples;Min_cycle;Max_cycle;Signal;HPM_P1;HPM_P2
2023/04/02 00:01:01;;;;;;;7.45;5.70;;;;;;;;;;4244775;28;20051;-58
2023/04/02 00:03:21;;;;;;;9.40;4.85;;;;;;;;;;4247212;28;20042;-58
2023/04/02 00:05:53;;;;;;;11.82;5.47;;;;;;;;;;4247865;28;20062;-58
2023/04/02 00:08:25;;;;;;;7.82;5.05;;;;;;;;;;4243840;28;20091;-58
2023/04/02 00:10:51;;;;;;;6.68;6.05;;;;;;;;;;4245603;28;20396;-58
2023/04/02 00:13:11;;;;;;;12.40;6.95;;;;;;;;;;4244526;28;20077;-58
2023/04/02 00:15:32;;;;;;;14.32;5.80;;;;;;;;;;4243253;28;20099;-57
2023/04/02 00:17:53;;;;;;;13.32;5.90;;;;;;;;;;4241429;28;20410;-57
2023/04/02 00:20:16;;;;;;;13.57;6.45;;;;;;;;;;4245281;28;20043;-58
2023/04/02 00:22:43;;;;;;;8.98;5.78;;;;;;;;;;4243410;28;20234;-57
2023/04/02 00:25:07;;;;;;;15.00;6.80;;;;;;;;;;4243116;28;20250;-57
2023/04/02 00:27:30;;;;;;;13.90;5.53;;;;;;;;;;4242725;28;20434;-58
2023/04/02 00:29:52;;;;;;;7.00;6.22;;;;;;;;;;4244102;28;20105;-58
2023/04/02 00:32:17;;;;;;;10.83;6.90;;;;;;;;;;4243530;28;20062;-58
2023/04/02 00:34:39;;;;;;;15.07;8.30;;;;;;;;;;4249289;28;20047;-58
2023/04/02 00:37:00;;;;;;;13.02;6.60;;;;;;;;;;4249997;27;20047;-58
2023/04/02 00:39:25;;;;;;;14.23;5.60;;;;;;;;;;4254349;28;20080;-58
2023/04/02 00:41:48;;;;;;;14.38;6.60;;;;;;;;;;4246849;28;20037;-58
2023/04/02 00:44:11;;;;;;;12.30;7.25;;;;;;;;;;4250496;28;20046;-57
2023/04/02 00:46:33;;;;;;;13.10;8.88;;;;;;;;;;4243997;28;20107;-58
2023/04/02 00:49:09;;;;;;;12.68;6.13;;;;;;;;;;4247121;28;20222;-58
2023/04/02 00:51:43;;;;;;;9.90;6.45;;;;;;;;;;4250308;28;20066;-58
2023/04/02 00:54:05;;;;;;;12.93;6.85;;;;;;;;;;4249634;28;20049;-58
2023/04/02 00:56:45;;;;;;;19.70;8.10;;;;;;;;;;4254125;28;20049;-58
2023/04/02 00:59:22;;;;;;;9.50;8.20;;;;;;;;;;4248363;28;20050;-57
2023/04/02 01:01:42;;;;;;;19.55;8.60;;;;;;;;;;4246924;28;20081;-58
2023/04/02 01:04:04;;;;;;;9.75;6.03;;;;;;;;;;4250993;28;20046;-58
2023/04/02 01:06:28;;;;;;;11.52;7.88;;;;;;;;;;4246768;28;20097;-58
2023/04/02 01:09:01;;;;;;;13.68;6.80;;;;;;;;;;4246267;28;20050;-58
2023/04/02 01:11:40;;;;;;;19.92;7.32;;;;;;;;;;4245745;28;20545;-57
2023/04/02 01:14:04;;;;;;;19.27;7.22;;;;;;;;;;4247782;28;20042;-58
2023/04/02 01:16:30;;;;;;;16.90;8.20;;;;;;;;;;4251252;28;20047;-58
2023/04/02 01:19:12;;;;;;;13.98;6.43;;;;;;;;;;4245571;28;20144;-58
2023/04/02 01:21:41;;;;;;;12.38;7.50;;;;;;;;;;4251012;28;20050;-58
2023/04/02 01:24:05;;;;;;;13.60;6.95;;;;;;;;;;4246812;28;20043;-58
2023/04/02 01:26:44;;;;;;;12.48;7.07;;;;;;;;;;4250406;28;20042;-58
2023/04/02 01:29:13;;;;;;;11.63;7.60;;;;;;;;;;4245212;28;20257;-58
2023/04/02 01:31:34;;;;;;;15.85;7.72;;;;;;;;;;4248175;28;20369;-58
2023/04/02 01:33:54;;;;;;;10.35;6.53;;;;;;;;;;4244755;28;20042;-58
2023/04/02 01:36:26;;;;;;;14.05;7.07;;;;;;;;;;4241764;28;20055;-58
2023/04/02 01:38:55;;;;;;;19.02;7.20;;;;;;;;;;4250511;28;20261;-58
2023/04/02 01:41:29;;;;;;;14.50;7.75;;;;;;;;;;4247334;28;20046;-58
2023/04/02 01:43:53;;;;;;;14.60;7.63;;;;;;;;;;4247501;28;20051;-58
2023/04/02 01:46:33;;;;;;;11.02;6.97;;;;;;;;;;4247194;28;20050;-58
2023/04/02 01:48:54;;;;;;;11.32;6.30;;;;;;;;;;4251732;28;20046;-58
2023/04/02 01:51:24;;;;;;;11.50;6.13;;;;;;;;;;4252298;28;20101;-58
2023/04/02 01:53:44;;;;;;;18.67;8.30;;;;;;;;;;4247135;28;20239;-58
2023/04/02 01:56:06;;;;;;;12.38;7.43;;;;;;;;;;4246832;28;20107;-58
2023/04/02 01:58:30;;;;;;;13.07;7.63;;;;;;;;;;4246484;28;20234;-58
2023/04/02 02:01:00;;;;;;;15.88;7.25;;;;;;;;;;4243610;28;20066;-58
2023/04/02 02:03:21;;;;;;;9.57;6.35;;;;;;;;;;4247578;28;20047;-58
2023/04/02 02:05:42;;;;;;;19.08;7.50;;;;;;;;;;4245750;28;20046;-58
2023/04/02 02:08:02;;;;;;;12.65;7.13;;;;;;;;;;4245573;28;20098;-58
2023/04/02 02:10:26;;;;;;;13.00;5.75;;;;;;;;;;4245491;28;20276;-57
2023/04/02 02:12:47;;;;;;;12.13;6.35;;;;;;;;;;4249415;28;20050;-58
2023/04/02 02:15:14;;;;;;;6.07;5.22;;;;;;;;;;4245758;28;20062;-58
2023/04/02 02:17:34;;;;;;;10.25;6.40;;;;;;;;;;4245040;28;20122;-58
2023/04/02 02:19:56;;;;;;;12.50;7.18;;;;;;;;;;4244483;28;20081;-58
2023/04/02 02:22:28;;;;;;;13.18;6.47;;;;;;;;;;4249467;28;20043;-58
2023/04/02 02:24:49;;;;;;;9.53;5.47;;;;;;;;;;4241204;28;20042;-58
2023/04/02 02:27:33;;;;;;;10.95;5.95;;;;;;;;;;4245412;28;20612;-58
2023/04/02 02:29:56;;;;;;;12.05;6.05;;;;;;;;;;4214719;28;20410;-58
2023/04/02 02:32:17;;;;;;;11.93;5.63;;;;;;;;;;4240437;28;20378;-58
2023/04/02 02:34:40;;;;;;;8.75;5.05;;;;;;;;;;4242074;28;20073;-58
2023/04/02 02:37:12;;;;;;;12.55;6.28;;;;;;;;;;4246646;27;20062;-58
2023/04/02 02:39:46;;;;;;;10.05;6.32;;;;;;;;;;4243717;28;20234;-58
2023/04/02 02:42:17;;;;;;;13.20;6.97;;;;;;;;;;4246218;28;20062;-57
2023/04/02 02:44:41;;;;;;;16.70;6.50;;;;;;;;;;4244915;28;20054;-58
2023/04/02 02:47:03;;;;;;;11.98;5.90;;;;;;;;;;4245653;28;20254;-58
2023/04/02 02:49:34;;;;;;;8.00;5.00;;;;;;;;;;4251783;28;20050;-58
2023/04/02 02:52:01;;;;;;;7.93;5.50;;;;;;;;;;4246044;28;20361;-58
2023/04/02 02:54:20;;;;;;;6.85;5.32;;;;;;;;;;4250460;28;20050;-58
2023/04/02 02:56:45;;;;;;;9.07;5.82;;;;;;;;;;4245729;28;20375;-58
2023/04/02 02:59:07;;;;;;;9.32;5.35;;;;;;;;;;4243597;28;20042;-58
2023/04/02 03:01:28;;;;;;;12.23;6.55;;;;;;;;;;4242860;28;20047;-58
2023/04/02 03:03:52;;;;;;;6.10;5.60;;;;;;;;;;4242511;28;20226;-58
2023/04/02 03:06:15;;;;;;;7.05;6.00;;;;;;;;;;4250804;28;20042;-57
2023/04/02 03:08:44;;;;;;;11.38;6.03;;;;;;;;;;4249323;28;20369;-58
2023/04/02 03:11:11;;;;;;;6.60;6.10;;;;;;;;;;4246285;28;20054;-58
2023/04/02 03:13:37;;;;;;;8.95;6.85;;;;;;;;;;4244690;28;20045;-58
2023/04/02 03:15:58;;;;;;;8.68;5.60;;;;;;;;;;4240771;28;20039;-58
2023/04/02 03:18:24;;;;;;;10.40;6.78;;;;;;;;;;4247583;28;20051;-57
2023/04/02 03:24:15;;;;;;;11.25;5.35;;;;;;;;;;4250234;27;20227;-57
2023/04/02 03:26:57;;;;;;;9.30;5.63;;;;;;;;;;4251760;28;20043;-58
2023/04/02 03:29:17;;;;;;;6.10;4.93;;;;;;;;;;4248288;28;20242;-58
2023/04/02 03:31:41;;;;;;;6.68;6.22;;;;;;;;;;4244954;28;20077;-58
2023/04/02 03:34:01;;;;;;;;;;;;;;;;;;4252634;28;20042;-58
2023/04/02 03:36:42;;;;;;;8.25;7.40;;;;;;;;;;4247017;28;19976;-58
2023/04/02 03:39:11;;;;;;;7.13;6.50;;;;;;;;;;4246920;28;20288;-58
2023/04/02 03:41:34;;;;;;;7.38;5.97;;;;;;;;;;4253286;28;20132;-57
2023/04/02 03:43:54;;;;;;;;;;;;;;;;;;4250239;28;20050;-58
2023/04/02 03:46:23;;;;;;;8.52;6.60;;;;;;;;;;4249093;28;20252;-58
2023/04/02 03:48:46;;;;;;;10.38;7.25;;;;;;;;;;4245917;28;20046;-58
2023/04/02 03:51:10;;;;;;;6.93;6.25;;;;;;;;;;4252166;28;20085;-58
2023/04/02 03:53:31;;;;;;;6.30;5.80;;;;;;;;;;4248836;28;20070;-58
2023/04/02 03:55:52;;;;;;;8.85;6.40;;;;;;;;;;4250048;28;20235;-58
2023/04/02 03:58:35;;;;;;;7.68;5.72;;;;;;;;;;4247025;28;20119;-58
2023/04/02 04:00:56;;;;;;;12.73;6.50;;;;;;;;;;4246010;28;20046;-58
2023/04/02 04:03:18;;;;;;;6.55;5.93;;;;;;;;;;4245755;28;20115;-58
2023/04/02 04:05:47;;;;;;;14.90;6.65;;;;;;;;;;4250072;28;20366;-58
2023/04/02 04:08:12;;;;;;;9.85;6.68;;;;;;;;;;4250600;28;20362;-58
2023/04/02 04:10:32;;;;;;;10.13;5.65;;;;;;;;;;4245304;28;20073;-58
2023/04/02 04:12:55;;;;;;;8.93;6.55;;;;;;;;;;4251339;28;20320;-58
2023/04/02 04:15:32;;;;;;;13.27;5.67;;;;;;;;;;4249185;28;20039;-59
2023/04/02 04:18:20;;;;;;;8.20;6.93;;;;;;;;;;4251710;28;20070;-58
2023/04/02 04:20:40;;;;;;;7.50;6.93;;;;;;;;;;4246759;28;20066;-58
2023/04/02 04:23:30;;;;;;;7.90;7.10;;;;;;;;;;4247992;28;20233;-58
2023/04/02 04:25:57;;;;;;;6.85;6.28;;;;;;;;;;4191001;28;20044;-58
2023/04/02 04:28:37;;;;;;;13.95;6.22;;;;;;;;;;4186350;28;20143;-58
2023/04/02 04:31:00;;;;;;;13.60;7.85;;;;;;;;;;4191983;28;20274;-58
2023/04/02 04:33:21;;;;;;;12.82;6.18;;;;;;;;;;4189721;28;20056;-58
2023/04/02 04:35:48;;;;;;;8.25;7.30;;;;;;;;;;4190229;28;20071;-58
2023/04/02 04:38:17;;;;;;;6.25;5.85;;;;;;;;;;4192684;28;20047;-58
2023/04/02 04:40:51;;;;;;;7.38;6.82;;;;;;;;;;4193421;28;20046;-58
2023/04/02 04:43:15;;;;;;;6.85;6.22;;;;;;;;;;4188849;28;20276;-58
2023/04/02 04:45:43;;;;;;;7.82;6.18;;;;;;;;;;4189746;28;20047;-58
2023/04/02 04:48:07;;;;;;;10.10;7.68;;;;;;;;;;4189494;28;20052;-58
2023/04/02 04:50:27;;;;;;;8.95;7.53;;;;;;;;;;4186186;28;20055;-58
2023/04/02 04:52:47;;;;;;;9.55;8.73;;;;;;;;;;4189821;28;20139;-58
2023/04/02 04:55:22;;;;;;;6.75;6.13;;;;;;;;;;4189826;28;20040;-58
2023/04/02 04:57:43;;;;;;;10.20;6.97;;;;;;;;;;4189698;28;20048;-58
2023/04/02 05:00:12;;;;;;;18.55;16.75;;;;;;;;;;4187776;28;20043;-58
2023/04/02 05:02:36;;;;;;;10.02;9.00;;;;;;;;;;4228799;28;20042;-58
2023/04/02 05:04:56;;;;;;;11.50;8.68;;;;;;;;;;4247631;28;20047;-58
2023/04/02 05:07:26;;;;;;;10.70;9.10;;;;;;;;;;4247957;28;20042;-58
2023/04/02 05:09:50;;;;;;;11.07;10.15;;;;;;;;;;4248948;28;20058;-58
2023/04/02 05:12:21;;;;;;;14.60;13.13;;;;;;;;;;4247371;28;20045;-58
2023/04/02 05:14:53;;;;;;;11.43;10.23;;;;;;;;;;4248524;28;20050;-58
2023/04/02 05:17:19;;;;;;;9.57;8.60;;;;;;;;;;4245073;28;20098;-58
2023/04/02 05:20:08;;;;;;;10.93;9.85;;;;;;;;;;4249812;28;20396;-58
2023/04/02 05:22:49;;;;;;;10.65;8.77;;;;;;;;;;4228755;28;20050;-58
2023/04/02 05:25:19;;;;;;;10.07;8.85;;;;;;;;;;4247369;28;20051;-58
2023/04/02 05:27:43;;;;;;;12.75;9.13;;;;;;;;;;4251312;27;20037;-58
2023/04/02 05:30:09;;;;;;;22.45;16.10;;;;;;;;;;4249106;28;20227;-58
2023/04/02 05:32:33;;;;;;;10.05;8.63;;;;;;;;;;4245442;28;20107;-58
2023/04/02 05:34:53;;;;;;;;;;;;;;;;;;4247843;28;20103;-58
2023/04/02 05:37:20;;;;;;;10.35;8.02;;;;;;;;;;4246874;27;20222;-58
2023/04/02 05:39:44;;;;;;;11.43;9.95;;;;;;;;;;4242988;28;20095;-59
2023/04/02 05:42:06;;;;;;;10.20;8.70;;;;;;;;;;4242288;28;20045;-59
2023/04/02 05:44:28;;;;;;;8.82;7.97;;;;;;;;;;4247937;28;20042;-58
2023/04/02 05:46:56;;;;;;;7.18;6.93;;;;;;;;;;4246959;28;20042;-58
2023/04/02 05:49:23;;;;;;;8.05;7.22;;;;;;;;;;4246286;28;20081;-58
2023/04/02 05:51:45;;;;;;;13.40;7.53;;;;;;;;;;4254493;28;20106;-58
2023/04/02 05:54:11;;;;;;;14.52;8.27;;;;;;;;;;4248711;28;20042;-59
2023/04/02 05:56:34;;;;;;;11.50;8.60;;;;;;;;;;4248367;28;20077;-58
2023/04/02 05:59:13;;;;;;;11.93;10.18;;;;;;;;;;4245673;28;20106;-58
2023/04/02 06:01:33;;;;;;;10.35;8.30;;;;;;;;;;4243348;28;20054;-58
2023/04/02 06:04:01;;;;;;;18.48;8.57;;;;;;;;;;4248022;28;20047;-58
2023/04/02 06:06:26;;;;;;;11.40;7.00;;;;;;;;;;4248331;28;20050;-58
2023/04/02 06:08:51;;;;;;;17.58;7.20;;;;;;;;;;4248928;28;20080;-58
2023/04/02 06:11:13;;;;;;;8.50;7.75;;;;;;;;;;4245792;28;20070;-58
2023/04/02 06:13:33;;;;;;;23.05;7.43;;;;;;;;;;4248230;28;20077;-58
2023/04/02 06:15:53;;;;;;;17.90;9.73;;;;;;;;;;4250823;28;20109;-58
2023/04/02 06:18:16;;;;;;;8.95;7.90;;;;;;;;;;4246115;28;20085;-58
2023/04/02 06:20:36;;;;;;;;;;;;;;;;;;4246959;28;20076;-58
2023/04/02 06:22:59;;;;;;;8.18;7.55;;;;;;;;;;4247653;28;19923;-58
2023/04/02 06:25:23;;;;;;;10.63;6.50;;;;;;;;;;4249312;28;20107;-58
2023/04/02 06:27:45;;;;;;;6.95;5.97;;;;;;;;;;4241563;28;20046;-58
2023/04/02 06:30:06;;;;;;;8.90;6.57;;;;;;;;;;4246289;28;20051;-58
2023/04/02 06:32:27;;;;;;;8.30;6.28;;;;;;;;;;4244319;28;20243;-58
2023/04/02 06:34:47;;;;;;;8.27;6.00;;;;;;;;;;4246936;28;20436;-58
2023/04/02 06:37:27;;;;;;;15.35;6.50;;;;;;;;;;4242813;28;20149;-58
2023/04/02 06:39:47;;;;;;;12.00;6.65;;;;;;;;;;4247730;27;20033;-58
2023/04/02 06:42:19;;;;;;;11.57;6.22;;;;;;;;;;4242100;28;20046;-59
2023/04/02 06:44:39;;;;;;;6.57;6.15;;;;;;;;;;4247472;28;20081;-58
2023/04/02 06:47:20;;;;;;;10.77;7.13;;;;;;;;;;4243062;28;20077;-58
2023/04/02 06:49:47;;;;;;;13.85;7.00;;;;;;;;;;4247483;28;20111;-58
2023/04/02 06:52:13;;;;;;;7.25;6.13;;;;;;;;;;4240536;28;20235;-58
2023/04/02 06:54:33;;;;;;;19.27;7.80;;;;;;;;;;4246320;28;20039;-58
2023/04/02 06:56:58;;;;;;;7.70;6.32;;;;;;;;;;4241719;28;20366;-58
2023/04/02 06:59:19;;;;;;;9.43;6.85;;;;;;;;;;4245722;28;20377;-58
2023/04/02 07:01:43;;;;;;;10.52;6.60;;;;;;;;;;4244474;28;20054;-58
2023/04/02 07:04:03;;;;;;;17.42;7.30;;;;;;;;;;4245739;28;20111;-58
2023/04/02 07:06:23;;;;;;;12.68;10.20;;;;;;;;;;4241916;28;20047;-58
2023/04/02 07:08:44;;;;;;;14.73;10.35;;;;;;;;;;4246883;28;20107;-58
2023/04/02 07:11:04;;;;;;;10.00;8.88;;;;;;;;;;4245902;28;20042;-58
2023/04/02 07:13:25;;;;;;;14.55;8.07;;;;;;;;;;4245379;28;20055;-58
2023/04/02 07:15:46;;;;;;;12.68;9.38;;;;;;;;;;4240420;28;20397;-57
2023/04/02 07:18:07;;;;;;;12.73;7.53;;;;;;;;;;4247816;28;20370;-58
2023/04/02 07:20:36;;;;;;;8.52;6.32;;;;;;;;;;4246986;28;20420;-58
2023/04/02 07:22:57;;;;;;;7.72;6.32;;;;;;;;;;4244790;28;20080;-59
2023/04/02 07:25:17;;;;;;;8.63;5.75;;;;;;;;;;4245942;28;20227;-58
2023/04/02 07:27:37;;;;;;;14.43;5.88;;;;;;;;;;4246482;28;20085;-59
2023/04/02 07:29:57;;;;;;;8.38;4.75;;;;;;;;;;4244702;28;20047;-58
2023/04/02 07:32:18;;;;;;;10.88;4.80;;;;;;;;;;4247296;28;20242;-59
2023/04/02 07:34:39;;;;;;;12.30;4.63;;;;;;;;;;4247271;28;20070;-58
2023/04/02 07:37:01;;;;;;;10.32;4.90;;;;;;;;;;4243380;28;20104;-58
2023/04/02 07:39:21;;;;;;;14.15;3.65;;;;;;;;;;4246840;28;20110;-58
2023/04/02 07:41:55;;;;;;;7.05;5.05;;;;;;;;;;4246461;28;20159;-58
2023/04/02 07:44:16;;;;;;;8.32;4.63;;;;;;;;;;4243035;28;20084;-58
2023/04/02 07:46:36;;;;;;;7.60;4.88;;;;;;;;;;4245889;28;20050;-58
2023/04/02 07:48:56;;;;;;;11.23;5.43;;;;;;;;;;4233016;28;20077;-58
2023/04/02 07:51:21;;;;;;;14.02;5.40;;;;;;;;;;4245874;27;20067;-58
2023/04/02 07:53:41;;;;;;;9.85;6.00;;;;;;;;;;4249087;28;20472;-58
2023/04/02 07:56:03;;;;;;;7.50;3.70;;;;;;;;;;4251226;28;20050;-58
2023/04/02 07:58:23;;;;;;;11.32;6.72;;;;;;;;;;4250861;28;20388;-58
2023/04/02 08:00:43;;;;;;;12.40;6.80;;;;;;;;;;4253466;28;20097;-58
2023/04/02 08:03:04;;;;;;;11.00;6.90;;;;;;;;;;4246292;28;20093;-58
2023/04/02 08:05:25;;;;;;;9.10;4.82;;;;;;;;;;4249325;28;20095;-58
2023/04/02 08:07:52;;;;;;;9.70;3.95;;;;;;;;;;4249837;28;20051;-58
2023/04/02 08:10:12;;;;;;;7.38;3.60;;;;;;;;;;4252155;28;20110;-58
2023/04/02 08:12:32;;;;;;;11.93;5.78;;;;;;;;;;4245950;28;20050;-58
2023/04/02 08:14:52;;;;;;;15.85;6.22;;;;;;;;;;4250947;28;20038;-58
2023/04/02 08:17:13;;;;;;;12.50;4.30;;;;;;;;;;4249567;28;20058;-58
2023/04/02 08:19:33;;;;;;;10.20;3.90;;;;;;;;;;4248989;28;20282;-58
2023/04/02 08:22:07;;;;;;;8.02;4.45;;;;;;;;;;4248069;28;20050;-58
2023/04/02 08:24:27;;;;;;;13.35;6.30;;;;;;;;;;4247693;28;20037;-58
2023/04/02 08:26:48;;;;;;;8.35;4.47;;;;;;;;;;4249861;28;20047;-58
2023/04/02 08:29:09;;;;;;;11.13;4.70;;;;;;;;;;4244906;28;20085;-58
2023/04/02 08:31:29;;;;;;;7.25;3.83;;;;;;;;;;4247730;28;20042;-58
2023/04/02 08:33:50;;;;;;;10.73;4.20;;;;;;;;;;4246370;28;20361;-58
2023/04/02 08:36:15;;;;;;;7.07;3.80;;;;;;;;;;4242523;28;20142;-59
2023/04/02 08:38:36;;;;;;;3.60;3.30;;;;;;;;;;4245757;28;20039;-58
2023/04/02 08:40:57;;;;;;;12.07;5.57;;;;;;;;;;4245409;28;20125;-58
2023/04/02 08:43:17;;;;;;;8.68;5.78;;;;;;;;;;4244786;28;20136;-58
2023/04/02 08:45:37;;;;;;;18.40;5.50;;;;;;;;;;4253626;28;20053;-58
2023/04/02 08:47:58;;;;;;;9.80;3.85;;;;;;;;;;4244236;28;20235;-58
2023/04/02 08:50:31;;;;;;;6.20;4.78;;;;;;;;;;4245502;28;20043;-58
2023/04/02 08:52:52;;;;;;;;;;;;;;;;;;4246283;28;20050;-58
2023/04/02 08:55:41;;;;;;;10.23;2.95;;;;;;;;;;4243189;28;19977;-58
2023/04/02 08:58:08;;;;;;;8.30;3.28;;;;;;;;;;4161572;28;20376;-58
2023/04/02 09:00:34;;;;;;;6.55;3.65;;;;;;;;;;4156934;28;20106;-58
2023/04/02 09:02:59;;;;;;;4.78;2.15;;;;;;;;;;4161643;28;20406;-58
2023/04/02 09:05:24;;;;;;;8.75;3.17;;;;;;;;;;4154507;28;20072;-58
2023/04/02 09:07:46;;;;;;;7.40;4.90;;;;;;;;;;4156830;28;20072;-58
2023/04/02 09:10:12;;;;;;;15.05;12.00;;;;;;;;;;4155863;28;20092;-58
2023/04/02 09:12:32;;;;;;;55.05;36.42;;;;;;;;;;4158130;28;20330;-58
2023/04/02 09:14:52;;;;;;;88.85;68.63;;;;;;;;;;4155600;28;20053;-59
2023/04/02 09:17:20;;;;;;;6.97;5.78;;;;;;;;;;4156657;28;20368;-59
2023/04/02 09:19:43;;;;;;;6.60;6.03;;;;;;;;;;4157355;28;20040;-58
2023/04/02 09:22:16;;;;;;;3.00;2.70;;;;;;;;;;4155958;28;20045;-59
2023/04/02 09:24:36;;;;;;;3.17;2.13;;;;;;;;;;4156601;28;20196;-58
2023/04/02 09:26:56;;;;;;;4.03;2.25;;;;;;;;;;4155350;28;20064;-58
2023/04/02 09:29:24;;;;;;;2.67;2.15;;;;;;;;;;4158670;28;20052;-58
2023/04/02 09:31:46;;;;;;;2.88;1.95;;;;;;;;;;4157144;28;20429;-58
2023/04/02 09:34:26;;;;;;;7.93;2.33;;;;;;;;;;4189586;28;20058;-58
2023/04/02 09:36:46;;;;;;;8.15;1.60;;;;;;;;;;4248699;28;20238;-59
2023/04/02 09:39:19;;;;;;;10.00;2.05;;;;;;;;;;4243753;28;20373;-58
2023/04/02 09:41:40;;;;;;;5.90;1.50;;;;;;;;;;4242104;28;20045;-58
2023/04/02 09:44:20;;;;;;;3.00;2.70;;;;;;;;;;4244565;28;20311;-58
2023/04/02 09:47:08;;;;;;;3.20;1.95;;;;;;;;;;4249154;28;20046;-58
2023/04/02 09:49:38;;;;;;;2.83;1.92;;;;;;;;;;4233954;28;20038;-58
2023/04/02 09:52:11;;;;;;;3.15;1.70;;;;;;;;;;4247584;28;20050;-58
2023/04/02 09:54:31;;;;;;;8.02;5.78;;;;;;;;;;4242137;28;20057;-59
2023/04/02 09:57:02;;;;;;;2.83;2.58;;;;;;;;;;4248530;28;20357;-59
2023/04/02 09:59:22;;;;;;;2.75;1.48;;;;;;;;;;4248378;28;20081;-58
2023/04/02 10:01:47;;;;;;;5.75;3.78;;;;;;;;;;4245368;28;20037;-60
2023/04/02 10:04:26;;;;;;;2.20;1.52;;;;;;;;;;4243559;28;20110;-60
2023/04/02 10:06:49;;;;;;;96.07;57.33;;;;;;;;;;4249372;28;20057;-60
2023/04/02 10:09:20;;;;;;;45.93;25.33;;;;;;;;;;4248364;28;20042;-59
2023/04/02 10:11:41;;;;;;;20.98;12.40;;;;;;;;;;4247352;28;20046;-60
2023/04/02 10:14:09;;;;;;;7.38;4.38;;;;;;;;;;4246477;28;20055;-59
2023/04/02 10:16:31;;;;;;;3.03;2.83;;;;;;;;;;4247739;28;20099;-60
2023/04/02 10:18:55;;;;;;;5.60;4.07;;;;;;;;;;4244791;28;20227;-60
2023/04/02 10:21:18;;;;;;;95.28;60.25;;;;;;;;;;4249905;28;20084;-60
2023/04/02 10:23:38;;;;;;;22.35;13.25;;;;;;;;;;4249001;28;20090;-60
2023/04/02 10:26:13;;;;;;;6.15;1.80;;;;;;;;;;4247112;28;20247;-60
2023/04/02 10:28:43;;;;;;;3.35;1.40;;;;;;;;;;4250333;28;20374;-60
2023/04/02 10:31:11;;;;;;;7.10;5.13;;;;;;;;;;4239677;28;20251;-60
2023/04/02 10:33:35;;;;;;;15.20;6.35;;;;;;;;;;4246854;28;20077;-60
2023/04/02 10:35:55;;;;;;;3.05;1.80;;;;;;;;;;4246671;27;20042;-60
2023/04/02 10:38:23;;;;;;;3.25;1.95;;;;;;;;;;4248117;28;20050;-60
2023/04/02 10:40:59;;;;;;;2.33;1.73;;;;;;;;;;4245735;28;20357;-60
2023/04/02 10:43:38;;;;;;;6.40;5.75;;;;;;;;;;4247163;28;20055;-60
2023/04/02 10:46:05;;;;;;;9.00;4.43;;;;;;;;;;4244776;28;20106;-60
2023/04/02 10:48:37;;;;;;;3.47;1.52;;;;;;;;;;4245285;28;20053;-60
2023/04/02 10:51:21;;;;;;;3.42;1.55;;;;;;;;;;4250402;28;20398;-60
2023/04/02 10:53:45;;;;;;;1.70;1.60;;;;;;;;;;4241364;28;20111;-60
2023/04/02 10:56:09;;;;;;;4.47;2.00;;;;;;;;;;4243905;28;20046;-60
2023/04/02 10:58:31;;;;;;;3.47;1.90;;;;;;;;;;4243525;28;20050;-60
2023/04/02 11:00:55;;;;;;;6.68;2.38;;;;;;;;;;4244776;28;20046;-60
2023/04/02 11:03:18;;;;;;;3.80;1.33;;;;;;;;;;4252226;28;20105;-59
2023/04/02 11:05:53;;;;;;;3.72;1.60;;;;;;;;;;4245772;28;20039;-60
2023/04/02 11:08:23;;;;;;;3.85;2.75;;;;;;;;;;4242045;28;20118;-60
2023/04/02 11:10:45;;;;;;;5.75;2.97;;;;;;;;;;4248660;28;20100;-60
2023/04/02 11:13:06;;;;;;;;;;;;;;;;;;4245433;28;20050;-60
2023/04/02 11:15:26;;;;;;;2.15;2.05;;;;;;;;;;4247777;28;19979;-60
2023/04/02 11:17:47;;;;;;;4.30;2.33;;;;;;;;;;4240281;28;20042;-60
2023/04/02 11:20:27;;;;;;;4.50;3.80;;;;;;;;;;4244042;28;20038;-60
2023/04/02 11:23:03;;;;;;;3.92;2.42;;;;;;;;;;4250470;28;20108;-60
2023/04/02 11:25:24;;;;;;;8.57;3.05;;;;;;;;;;4245639;28;20085;-60
2023/04/02 11:27:44;;;;;;;10.70;4.47;;;;;;;;;;4241171;28;20293;-60
2023/04/02 11:30:25;;;;;;;4.70;3.13;;;;;;;;;;4252127;28;20039;-60
2023/04/02 11:32:48;;;;;;;3.78;3.25;;;;;;;;;;4248643;28;20045;-60
2023/04/02 11:35:26;;;;;;;3.42;2.28;;;;;;;;;;4247787;28;20034;-59
2023/04/02 11:37:46;;;;;;;7.40;4.95;;;;;;;;;;4250295;28;20050;-60
2023/04/02 11:40:26;;;;;;;4.47;2.22;;;;;;;;;;4248249;28;20235;-60
2023/04/02 11:42:48;;;;;;;3.33;2.13;;;;;;;;;;4246986;28;20662;-61
2023/04/02 11:45:27;;;;;;;3.53;2.97;;;;;;;;;;4249305;28;20418;-60
2023/04/02 11:47:59;;;;;;;3.25;2.67;;;;;;;;;;4235367;28;20066;-60
2023/04/02 11:50:40;;;;;;;2.70;2.58;;;;;;;;;;4249298;28;20058;-60
2023/04/02 11:53:05;;;;;;;3.72;2.80;;;;;;;;;;4243962;28;20404;-60
2023/04/02 11:55:26;;;;;;;3.55;3.30;;;;;;;;;;4244517;28;20077;-59
2023/04/02 11:58:01;;;;;;;6.30;5.72;;;;;;;;;;4253912;28;20463;-60
2023/04/02 12:00:41;;;;;;;4.78;4.40;;;;;;;;;;4252107;28;20068;-60
2023/04/02 12:03:19;;;;;;;5.85;4.45;;;;;;;;;;4253190;28;20090;-59
2023/04/02 12:05:42;;;;;;;3.40;2.53;;;;;;;;;;4249311;28;20042;-60
2023/04/02 12:08:06;;;;;;;3.60;3.00;;;;;;;;;;4245821;28;20234;-60
2023/04/02 12:10:53;;;;;;;2.70;1.88;;;;;;;;;;4247715;28;20304;-60
2023/04/02 12:13:20;;;;;;;7.45;3.90;;;;;;;;;;4248569;28;20354;-59
2023/04/02 12:15:40;;;;;;;3.70;3.42;;;;;;;;;;4247716;28;20050;-59
2023/04/02 12:18:21;;;;;;;5.22;4.78;;;;;;;;;;4249535;28;20061;-60
2023/04/02 12:20:41;;;;;;;6.90;5.78;;;;;;;;;;4246341;28;20039;-59
2023/04/02 12:23:02;;;;;;;9.73;6.30;;;;;;;;;;4245484;28;20046;-60
2023/04/02 12:25:45;;;;;;;4.47;3.85;;;;;;;;;;4249289;28;20034;-59
2023/04/02 12:28:19;;;;;;;11.48;6.07;;;;;;;;;;4249340;28;20039;-60
2023/04/02 12:30:40;;;;;;;8.63;7.82;;;;;;;;;;4246929;28;20042;-60
2023/04/02 12:33:36;;;;;;;6.75;6.15;;;;;;;;;;4247951;28;20296;-59
2023/04/02 12:35:57;;;;;;;6.30;5.78;;;;;;;;;;4177119;28;20076;-59
2023/04/02 12:38:23;;;;;;;5.47;4.95;;;;;;;;;;4176589;28;20391;-59
2023/04/02 12:40:50;;;;;;;3.45;3.15;;;;;;;;;;4158946;28;20153;-59
2023/04/02 12:43:27;;;;;;;6.55;4.28;;;;;;;;;;4175178;28;20060;-59
2023/04/02 12:45:50;;;;;;;5.07;3.72;;;;;;;;;;4174545;28;20487;-59
2023/04/02 12:48:12;;;;;;;7.22;4.78;;;;;;;;;;4174012;28;20049;-60
2023/04/02 12:50:33;;;;;;;3.17;2.58;;;;;;;;;;4172124;28;20314;-59
2023/04/02 12:52:57;;;;;;;7.55;4.30;;;;;;;;;;4171222;28;20064;-60
2023/04/02 12:55:19;;;;;;;6.03;4.43;;;;;;;;;;4175245;28;20052;-59
2023/04/02 12:57:40;;;;;;;;;;;;;;;;;;4182884;28;20083;-59
2023/04/02 13:00:05;;;;;;;6.65;3.38;;;;;;;;;;4181331;28;20209;-60
2023/04/02 13:02:26;;;;;;;7.15;3.10;;;;;;;;;;4176398;28;20075;-59
2023/04/02 13:04:50;;;;;;;5.57;3.47;;;;;;;;;;4179091;28;20051;-60
2023/04/02 13:07:13;;;;;;;7.32;4.30;;;;;;;;;;4182322;28;20136;-59
2023/04/02 13:09:34;;;;;;;8.48;5.13;;;;;;;;;;4166258;28;20149;-59
2023/04/02 13:11:55;;;;;;;11.98;5.60;;;;;;;;;;4227170;28;20101;-60
2023/04/02 13:14:20;;;;;;;5.97;5.03;;;;;;;;;;4247702;28;20093;-60
2023/04/02 13:16:40;;;;;;;5.95;3.58;;;;;;;;;;4247813;28;20358;-60
2023/04/02 13:19:19;;;;;;;7.35;4.53;;;;;;;;;;4247653;28;20047;-60
2023/04/02 13:21:39;;;;;;;12.82;4.72;;;;;;;;;;4246797;28;20054;-60
2023/04/02 13:23:59;;;;;;;4.32;3.92;;;;;;;;;;4247178;28;20050;-60
2023/04/02 13:26:21;;;;;;;4.20;3.90;;;;;;;;;;4247617;28;20046;-60
2023/04/02 13:28:41;;;;;;;4.32;3.45;;;;;;;;;;4247255;28;20050;-59
2023/04/02 13:31:01;;;;;;;10.07;5.22;;;;;;;;;;4244544;28;20077;-59
2023/04/02 13:33:21;;;;;;;5.18;4.38;;;;;;;;;;4249933;28;20081;-59
2023/04/02 13:35:42;;;;;;;7.28;5.75;;;;;;;;;;4247444;28;20129;-60
2023/04/02 13:38:04;;;;;;;3.17;2.92;;;;;;;;;;4244562;28;20081;-60
2023/04/02 13:40:24;;;;;;;4.37;4.10;;;;;;;;;;4242998;28;20047;-60
2023/04/02 13:42:48;;;;;;;6.18;5.47;;;;;;;;;;4250408;28;20276;-59
2023/04/02 13:45:29;;;;;;;2.05;1.95;;;;;;;;;;4249006;28;20050;-59
2023/04/02 13:47:50;;;;;;;2.35;2.25;;;;;;;;;;4245682;28;20043;-60
2023/04/02 13:50:15;;;;;;;2.97;2.88;;;;;;;;;;4247544;28;20054;-59
2023/04/02 13:52:36;;;;;;;2.40;2.30;;;;;;;;;;4250226;28;20045;-60
2023/04/02 13:55:00;;;;;;;2.58;2.47;;;;;;;;;;4245291;28;20081;-59
2023/04/02 13:57:20;;;;;;;2.80;2.63;;;;;;;;;;4247641;28;20084;-60
2023/04/02 13:59:40;;;;;;;2.65;2.45;;;;;;;;;;4245523;28;20078;-59
2023/04/02 14:02:06;;;;;;;3.22;2.60;;;;;;;;;;4245031;28;20084;-59
2023/04/02 14:04:32;;;;;;;2.28;2.17;;;;;;;;;;4247051;28;20038;-59
2023/04/02 14:07:08;;;;;;;1.90;1.90;;;;;;;;;;4247233;28;20273;-60
2023/04/02 14:09:46;;;;;;;2.88;2.78;;;;;;;;;;4244896;28;20418;-60
2023/04/02 14:12:19;;;;;;;2.65;2.30;;;;;;;;;;4247517;28;20096;-59
2023/04/02 14:14:45;;;;;;;2.35;2.22;;;;;;;;;;4246316;28;20399;-60
2023/04/02 14:17:38;;;;;;;1.67;1.65;;;;;;;;;;4248439;28;20078;-60
2023/04/02 14:20:11;;;;;;;1.80;1.70;;;;;;;;;;4221391;28;20050;-60
2023/04/02 14:22:45;;;;;;;1.98;1.90;;;;;;;;;;4245861;28;20047;-60
2023/04/02 14:25:17;;;;;;;2.13;2.03;;;;;;;;;;4251386;28;20403;-60
2023/04/02 14:27:56;;;;;;;1.60;1.50;;;;;;;;;;4248740;28;20047;-60
2023/04/02 14:30:21;;;;;;;1.52;1.52;;;;;;;;;;4245615;28;20363;-60
2023/04/02 14:33:00;;;;;;;2.15;2.05;;;;;;;;;;4243275;28;20058;-60
2023/04/02 14:35:30;;;;;;;1.70;1.70;;;;;;;;;;4247463;28;20058;-60